createdAt,value
2019-05-18T00:00:45.467Z,71.33
2019-05-18T00:03:59.287Z,71.41
2019-05-18T00:06:31.296Z,71.43
2019-05-18T00:09:02.710Z,71.25
2019-05-18T00:11:36.359Z,71.01
2019-05-18T00:14:05.284Z,70.68
2019-05-18T00:16:34.180Z,70.54
2019-05-18T00:19:03.092Z,70.50
2019-05-18T00:21:58.460Z,70.37
2019-05-18T00:24:34.367Z,70.23
2019-05-18T00:27:04.700Z,70.08
2019-05-18T00:29:40.914Z,69.97
2019-05-18T00:32:16.013Z,69.82
2019-05-18T00:34:50.101Z,69.85
2019-05-18T00:37:18.921Z,69.79
2019-05-18T00:39:53.746Z,69.67
2019-05-18T00:42:22.649Z,69.70
2019-05-18T00:44:52.802Z,69.77
2019-05-18T00:47:22.779Z,69.75
2019-05-18T00:49:51.638Z,69.64
2019-05-18T00:52:20.439Z,69.50
2019-05-18T00:54:49.451Z,69.48
2019-05-18T00:57:18.288Z,69.42
2019-05-18T00:59:48.055Z,69.57
2019-05-18T01:02:20.059Z,69.68
2019-05-18T01:04:51.017Z,69.69
2019-05-18T01:07:21.415Z,69.67
2019-05-18T01:09:50.109Z,69.82
2019-05-18T01:12:18.754Z,69.87
2019-05-18T01:14:47.347Z,69.73
2019-05-18T01:17:16.025Z,69.62
2019-05-18T01:19:44.707Z,69.49
2019-05-18T01:22:14.249Z,69.52
2019-05-18T01:24:46.494Z,69.65
2019-05-18T01:27:18.147Z,69.54
2019-05-18T01:29:46.727Z,69.64
2019-05-18T01:32:18.012Z,69.83
2019-05-18T01:34:46.703Z,69.83
2019-05-18T01:37:30.411Z,69.90
2019-05-18T01:39:59.276Z,69.82
2019-05-18T01:42:28.089Z,69.86
2019-05-18T01:44:56.821Z,70.08
2019-05-18T01:47:25.511Z,70.25
2019-05-18T01:49:54.197Z,70.53
2019-05-18T01:52:22.892Z,70.85
2019-05-18T01:54:51.519Z,70.94
2019-05-18T01:57:20.256Z,71.03
2019-05-18T01:59:52.943Z,71.29
2019-05-18T02:02:30.584Z,71.31
2019-05-18T02:05:02.134Z,71.23
2019-05-18T02:20:35.298Z,71.31
2019-05-18T02:23:04.017Z,71.32
2019-05-18T02:25:32.874Z,71.27
2019-05-18T02:28:02.983Z,71.39
2019-05-18T02:30:31.784Z,71.53
2019-05-18T02:33:03.685Z,71.66
2019-05-18T02:35:32.557Z,71.67
2019-05-18T02:38:15.281Z,71.71
2019-05-18T02:40:53.647Z,71.66
2019-05-18T02:43:22.533Z,71.55
2019-05-18T02:46:30.146Z,71.47
2019-05-18T02:52:31.276Z,71.66
2019-05-18T02:55:00.065Z,71.56
2019-05-18T02:57:29.717Z,71.51
2019-05-18T02:59:58.549Z,71.59
2019-05-18T03:02:28.201Z,71.69
2019-05-18T03:04:57.166Z,71.91
2019-05-18T03:07:26.004Z,71.96
2019-05-18T03:09:55.547Z,71.84
2019-05-18T03:12:26.703Z,71.87
2019-05-18T03:14:55.507Z,71.85
2019-05-18T03:17:25.373Z,71.76
2019-05-18T03:19:54.493Z,71.79
2019-05-18T03:26:20.613Z,71.97
2019-05-18T03:29:24.758Z,71.76
2019-05-18T03:31:53.659Z,71.65
2019-05-18T03:34:22.825Z,71.72
2019-05-18T03:37:12.955Z,71.75
2019-05-18T03:40:19.687Z,71.84
2019-05-18T03:42:48.685Z,71.71
2019-05-18T03:45:19.974Z,71.54
2019-05-18T03:47:48.857Z,71.54
2019-05-18T03:50:17.713Z,71.62
2019-05-18T03:53:07.423Z,71.65
2019-05-18T04:00:05.771Z,71.64
2019-05-18T04:03:14.757Z,71.55
2019-05-18T04:05:43.558Z,72.07
2019-05-18T04:08:13.039Z,72.19
2019-05-18T04:10:41.916Z,72.11
2019-05-18T04:13:25.902Z,72.18
2019-05-18T04:16:08.054Z,72.31
2019-05-18T04:22:37.108Z,72.36
2019-05-18T04:25:06.643Z,72.54
2019-05-18T04:27:35.618Z,72.73
2019-05-18T04:30:07.377Z,72.78
2019-05-18T04:32:36.239Z,72.92
2019-05-18T04:35:07.700Z,73.20
2019-05-18T04:37:39.052Z,73.36
2019-05-18T04:40:41.428Z,73.48
2019-05-18T04:44:12.250Z,73.70
2019-05-18T04:46:41.110Z,73.67
2019-05-18T04:53:08.518Z,73.39
2019-05-18T04:55:38.387Z,73.49
2019-05-18T04:58:38.434Z,73.75
2019-05-18T05:01:07.272Z,73.79
2019-05-18T05:03:36.193Z,73.96
2019-05-18T05:06:05.081Z,74.08
2019-05-18T05:12:15.687Z,74.01
2019-05-18T05:14:51.199Z,73.97
2019-05-18T05:17:23.529Z,74.02
2019-05-18T05:19:52.344Z,74.02
2019-05-18T05:22:22.353Z,73.86
2019-05-18T05:24:52.671Z,73.71
2019-05-18T05:28:13.515Z,73.58
2019-05-18T05:38:15.943Z,73.32
2019-05-18T05:41:03.975Z,73.17
2019-05-18T05:43:52.468Z,73.00
2019-05-18T05:47:22.058Z,72.94
2019-05-18T05:55:48.966Z,72.73
2019-05-18T05:58:30.047Z,72.58
2019-05-18T06:01:10.076Z,72.51
2019-05-18T06:03:51.026Z,72.36
2019-05-18T06:06:23.000Z,72.48
2019-05-18T06:08:52.636Z,72.71
2019-05-18T06:14:33.707Z,73.20
2019-05-18T06:17:08.291Z,73.08
2019-05-18T06:19:39.432Z,73.08
2019-05-18T06:22:09.828Z,73.04
2019-05-18T06:24:38.756Z,72.99
2019-05-18T06:27:08.918Z,73.00
2019-05-18T06:29:46.600Z,72.89
2019-05-18T06:32:15.967Z,72.78
2019-05-18T06:34:46.345Z,72.68
2019-05-18T06:37:15.253Z,72.54
2019-05-18T06:39:45.702Z,72.61
2019-05-18T06:43:09.095Z,72.61
2019-05-18T06:46:26.286Z,72.60
2019-05-18T06:49:14.517Z,72.62
2019-05-18T06:51:46.073Z,72.62
2019-05-18T06:54:18.548Z,72.68
2019-05-18T06:56:47.739Z,72.82
2019-05-18T06:59:35.950Z,72.89
2019-05-18T07:02:05.464Z,73.04
2019-05-18T07:04:38.055Z,73.30
2019-05-18T07:07:14.529Z,73.22
2019-05-18T07:10:02.816Z,73.05
2019-05-18T07:12:37.084Z,72.82
2019-05-18T07:15:12.422Z,72.83
2019-05-18T07:18:10.663Z,72.94
2019-05-18T07:20:59.316Z,72.93
2019-05-18T07:23:36.833Z,73.08
2019-05-18T07:26:15.471Z,73.01
2019-05-18T07:28:59.467Z,72.95
2019-05-18T07:31:32.614Z,72.76
2019-05-18T07:34:21.836Z,72.85
2019-05-18T07:36:54.898Z,72.78
2019-05-18T07:42:30.258Z,72.48
2019-05-18T07:45:01.657Z,72.22
2019-05-18T07:47:36.376Z,72.14
2019-05-18T07:50:06.924Z,71.96
2019-05-18T07:52:54.326Z,71.81
2019-05-18T07:58:36.869Z,71.38
2019-05-18T08:01:09.046Z,71.21
2019-05-18T08:03:44.445Z,71.11
2019-05-18T08:06:21.922Z,71.04
2019-05-18T08:08:54.354Z,70.82
2019-05-18T08:11:29.495Z,70.56
2019-05-18T08:13:59.981Z,70.28
2019-05-18T08:16:28.927Z,70.04
2019-05-18T08:18:59.293Z,69.72
2019-05-18T08:21:52.263Z,69.59
2019-05-18T08:24:08.908Z,69.37
2019-05-18T08:26:46.388Z,69.11
2019-05-18T08:29:20.546Z,68.94
2019-05-18T08:31:49.188Z,68.82
2019-05-18T08:34:32.109Z,68.73
2019-05-18T08:37:03.570Z,68.55
2019-05-18T08:42:52.866Z,68.18
2019-05-18T08:45:26.345Z,68.07
2019-05-18T08:48:08.469Z,67.89
2019-05-18T08:50:38.910Z,67.70
2019-05-18T08:53:14.006Z,67.48
2019-05-18T08:55:56.955Z,67.36
2019-05-18T08:58:27.899Z,67.24
2019-05-18T09:03:49.344Z,67.20
2019-05-18T09:06:20.143Z,67.09
2019-05-18T09:08:49.167Z,66.95
2019-05-18T09:11:29.352Z,66.84
2019-05-18T09:14:02.189Z,66.70
2019-05-18T09:16:34.619Z,66.52
2019-05-18T09:19:09.281Z,66.38
2019-05-18T09:21:41.171Z,66.24
2019-05-18T09:24:13.947Z,66.09
2019-05-18T09:26:44.177Z,65.91
2019-05-18T09:29:15.023Z,65.58
2019-05-18T09:31:44.309Z,65.12
2019-05-18T09:34:16.080Z,64.86
2019-05-18T09:36:56.359Z,64.64
2019-05-18T09:39:38.949Z,64.44
2019-05-18T09:42:09.733Z,64.08
2019-05-18T09:44:41.850Z,63.87
2019-05-18T09:47:14.794Z,63.49
2019-05-18T09:49:59.151Z,63.15
2019-05-18T09:52:44.234Z,62.83
2019-05-18T09:55:00.729Z,62.23
2019-05-18T09:57:30.795Z,61.95
2019-05-18T09:59:59.645Z,61.47
2019-05-18T10:02:43.175Z,61.18
2019-05-18T10:05:24.053Z,60.75
2019-05-18T10:08:04.405Z,60.24
2019-05-18T10:10:34.806Z,60.03
2019-05-18T10:13:10.562Z,59.51
2019-05-18T10:18:28.963Z,58.73
2019-05-18T10:21:00.076Z,58.21
2019-05-18T10:23:28.913Z,57.84
2019-05-18T10:25:59.378Z,57.35
2019-05-18T10:28:35.399Z,57.22
2019-05-18T10:31:10.719Z,57.00
2019-05-18T10:33:41.821Z,56.89
2019-05-18T10:36:14.987Z,56.52
2019-05-18T10:41:34.815Z,56.42
2019-05-18T10:44:06.034Z,56.07
2019-05-18T10:46:37.686Z,56.03
2019-05-18T10:49:07.875Z,55.96
2019-05-18T10:51:51.794Z,55.83
2019-05-18T10:54:21.904Z,55.60
2019-05-18T10:56:57.423Z,55.43
2019-05-18T10:59:30.799Z,55.33
2019-05-18T11:02:02.722Z,55.03
2019-05-18T11:04:36.348Z,54.86
2019-05-18T11:07:07.781Z,54.80
2019-05-18T11:09:40.238Z,54.86
2019-05-18T11:12:11.615Z,54.90
2019-05-18T11:14:47.187Z,54.79
2019-05-18T11:17:16.032Z,54.79
2019-05-18T11:19:45.097Z,54.76
2019-05-18T11:22:18.986Z,54.91
2019-05-18T11:24:47.694Z,54.92
2019-05-18T11:27:22.609Z,54.95
2019-05-18T11:29:55.952Z,54.99
2019-05-18T11:32:30.151Z,55.06
2019-05-18T11:35:04.837Z,55.23
2019-05-18T11:37:34.035Z,55.26
2019-05-18T11:40:06.104Z,55.39
2019-05-18T11:42:34.866Z,55.63
2019-05-18T11:45:17.859Z,55.74
2019-05-18T11:47:46.603Z,55.75
2019-05-18T11:50:24.478Z,55.79
2019-05-18T11:52:56.719Z,55.86
2019-05-18T11:55:27.235Z,55.85
2019-05-18T11:58:02.280Z,56.01
2019-05-18T12:01:07.144Z,55.98
2019-05-18T12:03:42.450Z,56.03
2019-05-18T12:06:33.907Z,56.04
2019-05-18T12:09:12.221Z,55.89
2019-05-18T12:11:46.175Z,55.80
2019-05-18T12:14:20.873Z,55.84
2019-05-18T12:19:45.380Z,55.55
2019-05-18T12:22:25.167Z,55.52
2019-05-18T12:25:10.730Z,55.69
2019-05-18T12:27:39.914Z,55.71
2019-05-18T12:33:02.455Z,55.91
2019-05-18T12:35:34.062Z,56.13
2019-05-18T12:38:07.353Z,56.25
2019-05-18T12:40:40.244Z,56.32
2019-05-18T12:43:15.774Z,56.19
2019-05-18T12:45:51.267Z,56.10
2019-05-18T12:48:20.952Z,55.75
2019-05-18T12:50:51.962Z,55.39
2019-05-18T12:53:32.038Z,54.75
2019-05-18T12:56:14.374Z,53.99
2019-05-18T12:58:50.655Z,53.63
2019-05-18T13:01:27.051Z,53.80
2019-05-18T13:04:02.483Z,54.39
2019-05-18T13:06:34.343Z,54.90
2019-05-18T13:09:04.699Z,55.33
2019-05-18T13:11:39.818Z,55.64
2019-05-18T13:14:09.803Z,55.88
2019-05-18T13:16:40.083Z,56.20
2019-05-18T13:19:08.933Z,56.34
2019-05-18T13:21:38.885Z,56.27
2019-05-18T13:24:11.508Z,56.21
2019-05-18T13:26:41.381Z,56.21
2019-05-18T13:29:11.425Z,56.07
2019-05-18T13:31:40.131Z,56.01
2019-05-18T13:34:08.825Z,55.90
2019-05-18T13:36:37.335Z,55.57
2019-05-18T13:39:08.928Z,55.33
2019-05-18T13:41:40.622Z,55.12
2019-05-18T13:44:10.665Z,55.05
2019-05-18T13:46:39.765Z,55.14
2019-05-18T13:49:09.878Z,55.39
2019-05-18T13:51:40.527Z,55.55
2019-05-18T13:54:11.694Z,55.72
2019-05-18T13:56:40.486Z,55.90
2019-05-18T13:59:09.762Z,56.04
2019-05-18T14:01:38.899Z,56.14
2019-05-18T14:04:08.368Z,56.31
2019-05-18T14:06:38.425Z,56.38
2019-05-18T14:09:07.341Z,56.51
2019-05-18T14:11:36.451Z,56.54
2019-05-18T14:14:06.610Z,56.46
2019-05-18T14:16:35.289Z,56.40
2019-05-18T14:19:04.154Z,56.55
2019-05-18T14:21:35.728Z,56.54
2019-05-18T14:24:04.787Z,56.63
2019-05-18T14:26:33.757Z,56.64
2019-05-18T14:29:06.948Z,56.53
2019-05-18T14:31:37.033Z,56.60
2019-05-18T14:34:05.827Z,56.76
2019-05-18T14:36:34.753Z,56.79
2019-05-18T14:39:06.382Z,56.71
2019-05-18T14:41:35.138Z,56.51
2019-05-18T14:44:08.557Z,56.43
2019-05-18T14:46:37.943Z,56.26
2019-05-18T14:49:12.869Z,56.11
2019-05-18T14:51:42.171Z,55.89
2019-05-18T14:54:12.833Z,55.79
2019-05-18T14:56:49.451Z,55.72
2019-05-18T14:59:21.147Z,55.42
2019-05-18T15:01:49.883Z,55.36
2019-05-18T15:04:18.583Z,55.11
2019-05-18T15:06:50.949Z,54.83
2019-05-18T15:09:21.447Z,54.76
2019-05-18T15:11:52.659Z,54.58
2019-05-18T15:14:21.748Z,54.37
2019-05-18T15:16:55.321Z,54.25
2019-05-18T15:19:27.128Z,53.99
2019-05-18T15:21:55.943Z,53.51
2019-05-18T15:24:25.487Z,53.32
2019-05-18T15:26:54.133Z,53.25
2019-05-18T15:29:22.940Z,53.09
2019-05-18T15:31:52.963Z,52.88
2019-05-18T15:34:27.403Z,52.55
2019-05-18T15:36:56.757Z,52.56
2019-05-18T15:39:36.632Z,52.31
2019-05-18T15:42:09.667Z,52.22
2019-05-18T15:44:39.721Z,52.20
2019-05-18T15:47:08.542Z,52.16
2019-05-18T15:49:37.203Z,52.20
2019-05-18T15:52:06.485Z,52.14
2019-05-18T15:54:36.278Z,52.12
2019-05-18T15:57:05.268Z,52.00
2019-05-18T15:59:34.149Z,52.00
2019-05-18T16:02:09.028Z,51.98
2019-05-18T16:04:45.857Z,52.07
2019-05-18T16:07:27.331Z,52.01
2019-05-18T16:10:16.433Z,52.18
2019-05-18T16:16:41.828Z,52.28
2019-05-18T16:19:13.290Z,52.21
2019-05-18T16:21:43.570Z,52.34
2019-05-18T16:24:18.559Z,52.34
2019-05-18T16:26:50.167Z,52.32
2019-05-18T16:29:19.546Z,52.48
2019-05-18T16:31:49.148Z,52.63
2019-05-18T16:34:20.189Z,52.68
2019-05-18T16:36:50.783Z,52.78
2019-05-18T16:39:19.695Z,52.88
2019-05-18T16:41:50.748Z,52.93
2019-05-18T16:44:22.770Z,53.12
2019-05-18T16:46:52.437Z,53.26
2019-05-18T16:49:23.420Z,53.29
2019-05-18T16:51:53.203Z,53.36
2019-05-18T16:54:23.189Z,53.50
2019-05-18T16:56:52.210Z,53.66
2019-05-18T16:59:24.068Z,53.75
2019-05-18T17:01:55.597Z,53.73
2019-05-18T17:04:29.163Z,54.04
2019-05-18T17:07:01.178Z,54.31
2019-05-18T17:09:32.245Z,54.34
2019-05-18T17:12:01.111Z,54.30
2019-05-18T17:14:30.052Z,54.29
2019-05-18T17:16:58.874Z,54.28
2019-05-18T17:19:29.155Z,54.30
2019-05-18T17:21:58.009Z,54.22
2019-05-18T17:24:27.629Z,54.20
2019-05-18T17:26:58.097Z,54.20
2019-05-18T17:29:27.583Z,54.19
2019-05-18T17:31:56.425Z,54.19
2019-05-18T17:34:28.530Z,54.25
2019-05-18T17:36:57.464Z,54.34
2019-05-18T17:39:26.314Z,54.61
2019-05-18T17:41:55.317Z,55.02
2019-05-18T17:44:24.351Z,55.45
2019-05-18T17:46:53.324Z,55.49
2019-05-18T17:49:26.871Z,56.02
2019-05-18T17:51:52.999Z,56.45
2019-05-18T17:54:24.757Z,56.75
2019-05-18T17:57:13.107Z,57.18
2019-05-18T17:59:44.201Z,57.29
2019-05-18T18:02:14.074Z,57.31
2019-05-18T18:04:43.045Z,57.23
2019-05-18T18:07:11.929Z,57.28
2019-05-18T18:09:43.454Z,57.44
2019-05-18T18:12:13.166Z,57.59
2019-05-18T18:14:43.910Z,57.54
2019-05-18T18:17:13.202Z,57.42
2019-05-18T18:19:42.815Z,57.40
2019-05-18T18:22:13.278Z,57.49
2019-05-18T18:24:44.139Z,57.48
2019-05-18T18:27:25.356Z,57.30
2019-05-18T18:29:53.351Z,57.12
2019-05-18T18:32:24.497Z,57.04
2019-05-18T18:34:56.141Z,57.10
2019-05-18T18:37:27.582Z,57.21
2019-05-18T18:39:56.549Z,57.22
2019-05-18T18:42:25.705Z,57.20
2019-05-18T18:44:56.890Z,57.18
2019-05-18T18:47:26.691Z,57.28
2019-05-18T18:49:55.570Z,57.28
2019-05-18T18:52:24.690Z,57.21
2019-05-18T18:54:53.789Z,57.17
2019-05-18T18:57:22.646Z,57.18
2019-05-18T18:59:57.762Z,57.13
2019-05-18T19:02:26.653Z,57.17
2019-05-18T19:04:55.504Z,57.25
2019-05-18T19:07:26.033Z,57.31
2019-05-18T19:09:55.600Z,57.30
2019-05-18T19:12:24.460Z,57.27
2019-05-18T19:14:57.284Z,57.29
2019-05-18T19:17:29.224Z,57.43
2019-05-18T19:19:58.017Z,57.50
2019-05-18T19:22:30.854Z,57.56
2019-05-18T19:24:59.788Z,57.69
2019-05-18T19:27:28.611Z,57.85
2019-05-18T19:29:58.446Z,58.04
2019-05-18T19:32:30.149Z,58.22
2019-05-18T19:34:59.038Z,58.33
2019-05-18T19:37:40.962Z,58.50
2019-05-18T19:40:11.128Z,58.64
2019-05-18T19:42:40.147Z,58.72
2019-05-18T19:45:11.114Z,58.80
2019-05-18T19:47:40.546Z,58.86
2019-05-18T19:50:10.049Z,58.91
2019-05-18T19:52:40.905Z,59.00
2019-05-18T19:55:14.911Z,59.06
2019-05-18T19:57:43.807Z,59.15
2019-05-18T20:00:14.955Z,59.28
2019-05-18T20:02:50.232Z,59.36
2019-05-18T20:05:21.155Z,59.46
2019-05-18T20:07:52.121Z,59.66
2019-05-18T20:10:22.671Z,59.82
2019-05-18T20:12:53.683Z,59.96
2019-05-18T20:15:25.158Z,60.28
2019-05-18T20:17:53.978Z,60.56
2019-05-18T20:20:22.995Z,60.76
2019-05-18T20:22:51.987Z,61.02
2019-05-18T20:25:20.918Z,61.22
2019-05-18T20:27:49.773Z,61.37
2019-05-18T20:30:18.674Z,61.44
2019-05-18T20:32:47.558Z,61.44
2019-05-18T20:35:17.103Z,61.42
2019-05-18T20:37:46.680Z,61.33
2019-05-18T20:40:17.558Z,61.43
2019-05-18T20:42:51.163Z,61.51
2019-05-18T20:45:20.145Z,61.44
2019-05-18T20:48:01.062Z,61.44
2019-05-18T20:50:32.368Z,61.48
2019-05-18T20:53:01.182Z,61.66
2019-05-18T20:55:30.060Z,61.81
2019-05-18T20:58:08.680Z,61.82
2019-05-18T21:00:38.681Z,61.83
2019-05-18T21:03:07.765Z,61.79
2019-05-18T21:05:38.331Z,61.73
2019-05-18T21:08:09.049Z,61.71
2019-05-18T21:10:40.917Z,61.68
2019-05-18T21:13:14.343Z,61.64
2019-05-18T21:15:46.951Z,61.61
2019-05-18T21:18:18.231Z,61.64
2019-05-18T21:20:49.823Z,61.63
2019-05-18T21:23:28.716Z,61.62
2019-05-18T21:25:59.245Z,61.67
2019-05-18T21:28:30.006Z,61.66
2019-05-18T21:31:02.687Z,61.68
2019-05-18T21:33:34.793Z,61.68
2019-05-18T21:36:03.612Z,61.64
2019-05-18T21:38:32.499Z,61.58
2019-05-18T21:41:01.330Z,61.47
2019-05-18T21:43:37.139Z,61.64
2019-05-18T21:46:06.733Z,61.89
2019-05-18T21:48:41.018Z,61.87
2019-05-18T21:51:09.921Z,61.85
2019-05-18T21:53:40.440Z,61.83
2019-05-18T21:56:09.310Z,61.81
2019-05-18T21:58:38.183Z,61.77
2019-05-18T22:01:10.464Z,61.74
2019-05-18T22:03:39.288Z,61.66
2019-05-18T22:06:08.702Z,61.59
2019-05-18T22:08:37.525Z,61.53
2019-05-18T22:11:13.893Z,61.44
2019-05-18T22:13:48.858Z,61.32
2019-05-18T22:16:23.561Z,61.23
2019-05-18T22:18:52.431Z,61.07
2019-05-18T22:21:21.252Z,60.93
2019-05-18T22:23:52.479Z,60.74
2019-05-18T22:26:22.010Z,60.59
2019-05-18T22:28:50.841Z,60.54
2019-05-18T22:31:19.905Z,60.48
2019-05-18T22:33:48.845Z,60.43
2019-05-18T22:36:23.255Z,60.33
2019-05-18T22:38:55.518Z,60.25
2019-05-18T22:41:24.471Z,60.19
2019-05-18T22:43:57.242Z,60.06
2019-05-18T22:46:26.066Z,59.99
2019-05-18T22:48:54.918Z,59.87
2019-05-18T22:51:23.890Z,59.75
2019-05-18T22:53:52.719Z,59.62
2019-05-18T22:56:31.999Z,59.55
2019-05-18T22:59:06.553Z,59.49
2019-05-18T23:01:35.514Z,59.50
2019-05-18T23:04:04.522Z,59.52
2019-05-18T23:06:33.485Z,59.54
2019-05-18T23:09:03.098Z,59.54
2019-05-18T23:11:31.915Z,59.58
2019-05-18T23:14:01.092Z,59.62
2019-05-18T23:16:30.027Z,59.67
2019-05-18T23:19:03.743Z,59.74
2019-05-18T23:21:32.621Z,59.79
2019-05-18T23:24:01.460Z,59.84
2019-05-18T23:26:30.263Z,59.90
2019-05-18T23:28:59.112Z,60.22
2019-05-18T23:31:28.560Z,60.38
2019-05-18T23:33:58.599Z,60.49
2019-05-18T23:36:29.251Z,60.51
2019-05-18T23:38:58.099Z,60.53
2019-05-18T23:41:26.945Z,60.53
2019-05-18T23:43:56.548Z,60.56
2019-05-18T23:46:26.468Z,60.60
2019-05-18T23:48:55.350Z,60.68
2019-05-18T23:51:24.218Z,60.64
2019-05-18T23:53:54.983Z,60.99
2019-05-18T23:56:24.052Z,61.43
2019-05-18T23:58:52.946Z,61.65
